sensor_id;sensor_type;location;lat;lon;timestamp;pressure;altitude;pressure_sealevel;temperature;humidity
80566;BME280;69915;54.862;10.730;2024-03-17T00:02:20;101966.88;;;3.49;83.46
80566;BME280;69915;54.862;10.730;2024-03-17T00:04:46;101962.72;;;3.47;82.88
80566;BME280;69915;54.862;10.730;2024-03-17T00:07:12;101970.44;;;3.43;83.80
80566;BME280;69915;54.862;10.730;2024-03-17T00:09:39;101974.66;;;3.39;84.05
80566;BME280;69915;54.862;10.730;2024-03-17T00:12:05;101978.81;;;3.35;84.04
80566;BME280;69915;54.862;10.730;2024-03-17T00:14:31;101980.66;;;3.41;83.76
80566;BME280;69915;54.862;10.730;2024-03-17T00:16:56;101999.00;;;3.33;84.41
80566;BME280;69915;54.862;10.730;2024-03-17T00:19:26;101992.31;;;3.35;84.08
80566;BME280;69915;54.862;10.730;2024-03-17T00:21:51;102003.13;;;3.35;84.67
80566;BME280;69915;54.862;10.730;2024-03-17T00:24:17;101994.22;;;3.28;84.41
80566;BME280;69915;54.862;10.730;2024-03-17T00:26:43;102002.13;;;3.29;84.42
80566;BME280;69915;54.862;10.730;2024-03-17T00:29:08;102000.06;;;3.25;84.68
80566;BME280;69915;54.862;10.730;2024-03-17T00:31:34;101999.63;;;3.28;84.19
80566;BME280;69915;54.862;10.730;2024-03-17T00:34:00;101995.06;;;3.22;84.10
80566;BME280;69915;54.862;10.730;2024-03-17T00:36:25;101994.47;;;3.20;83.58
80566;BME280;69915;54.862;10.730;2024-03-17T00:38:51;102004.59;;;3.31;83.15
80566;BME280;69915;54.862;10.730;2024-03-17T00:41:19;102012.72;;;3.24;84.00
80566;BME280;69915;54.862;10.730;2024-03-17T00:43:47;102009.22;;;3.24;84.02
80566;BME280;69915;54.862;10.730;2024-03-17T00:46:13;102012.97;;;3.23;84.39
80566;BME280;69915;54.862;10.730;2024-03-17T00:48:38;101998.84;;;3.21;84.08
80566;BME280;69915;54.862;10.730;2024-03-17T00:51:04;101992.78;;;3.19;83.79
80566;BME280;69915;54.862;10.730;2024-03-17T00:53:30;101991.34;;;3.23;83.24
80566;BME280;69915;54.862;10.730;2024-03-17T00:55:56;102006.94;;;3.21;83.76
80566;BME280;69915;54.862;10.730;2024-03-17T00:58:26;102002.56;;;3.20;83.52
80566;BME280;69915;54.862;10.730;2024-03-17T01:00:52;102010.44;;;3.21;83.31
80566;BME280;69915;54.862;10.730;2024-03-17T01:03:18;102015.28;;;3.13;83.48
80566;BME280;69915;54.862;10.730;2024-03-17T01:05:45;102013.38;;;3.20;83.07
80566;BME280;69915;54.862;10.730;2024-03-17T01:08:14;102017.53;;;3.16;83.52
80566;BME280;69915;54.862;10.730;2024-03-17T01:10:40;102030.03;;;3.10;83.88
80566;BME280;69915;54.862;10.730;2024-03-17T01:13:07;102013.00;;;3.10;84.01
80566;BME280;69915;54.862;10.730;2024-03-17T01:15:33;102026.50;;;3.10;83.97
80566;BME280;69915;54.862;10.730;2024-03-17T01:17:59;102023.63;;;3.05;84.15
80566;BME280;69915;54.862;10.730;2024-03-17T01:20:28;102025.06;;;3.07;84.25
80566;BME280;69915;54.862;10.730;2024-03-17T01:22:54;102029.03;;;3.05;84.08
80566;BME280;69915;54.862;10.730;2024-03-17T01:25:19;102020.69;;;3.06;84.14
80566;BME280;69915;54.862;10.730;2024-03-17T01:27:45;102033.38;;;3.06;84.11
80566;BME280;69915;54.862;10.730;2024-03-17T01:30:11;102047.72;;;3.06;84.90
80566;BME280;69915;54.862;10.730;2024-03-17T01:32:37;102051.25;;;3.07;84.63
80566;BME280;69915;54.862;10.730;2024-03-17T01:35:03;102055.41;;;3.03;85.27
80566;BME280;69915;54.862;10.730;2024-03-17T01:37:29;102046.06;;;2.99;84.83
80566;BME280;69915;54.862;10.730;2024-03-17T01:40:00;102039.59;;;3.00;84.52
80566;BME280;69915;54.862;10.730;2024-03-17T01:42:26;102031.50;;;3.00;83.89
80566;BME280;69915;54.862;10.730;2024-03-17T01:44:52;102034.84;;;2.95;83.95
80566;BME280;69915;54.862;10.730;2024-03-17T01:47:18;102050.66;;;2.98;83.99
80566;BME280;69915;54.862;10.730;2024-03-17T01:49:46;102053.34;;;2.92;84.23
80566;BME280;69915;54.862;10.730;2024-03-17T01:52:14;102050.84;;;2.97;83.80
80566;BME280;69915;54.862;10.730;2024-03-17T01:54:41;102056.28;;;2.90;84.08
80566;BME280;69915;54.862;10.730;2024-03-17T01:57:07;102047.94;;;2.92;83.12
80566;BME280;69915;54.862;10.730;2024-03-17T01:59:33;102051.50;;;2.92;83.32
80566;BME280;69915;54.862;10.730;2024-03-17T02:01:59;102056.91;;;2.86;83.22
80566;BME280;69915;54.862;10.730;2024-03-17T02:04:25;102054.84;;;2.81;83.19
80566;BME280;69915;54.862;10.730;2024-03-17T02:06:50;102048.19;;;2.84;82.71
80566;BME280;69915;54.862;10.730;2024-03-17T02:09:16;102059.00;;;2.77;83.14
80566;BME280;69915;54.862;10.730;2024-03-17T02:11:44;102054.00;;;2.81;82.58
80566;BME280;69915;54.862;10.730;2024-03-17T02:14:10;102060.84;;;2.77;83.30
80566;BME280;69915;54.862;10.730;2024-03-17T02:16:36;102061.88;;;2.75;83.65
80566;BME280;69915;54.862;10.730;2024-03-17T02:19:02;102072.28;;;2.72;84.01
80566;BME280;69915;54.862;10.730;2024-03-17T02:21:27;102077.47;;;2.67;83.60
80566;BME280;69915;54.862;10.730;2024-03-17T02:23:56;102086.22;;;2.69;83.54
80566;BME280;69915;54.862;10.730;2024-03-17T02:26:25;102088.50;;;2.59;83.72
80566;BME280;69915;54.862;10.730;2024-03-17T02:28:51;102089.50;;;2.58;83.96
80566;BME280;69915;54.862;10.730;2024-03-17T02:31:17;102091.63;;;2.62;83.42
80566;BME280;69915;54.862;10.730;2024-03-17T02:33:44;102085.38;;;2.62;83.68
80566;BME280;69915;54.862;10.730;2024-03-17T02:36:11;102097.00;;;2.62;83.53
80566;BME280;69915;54.862;10.730;2024-03-17T02:38:38;102100.72;;;2.55;83.81
80566;BME280;69915;54.862;10.730;2024-03-17T02:41:23;102099.06;;;2.54;83.65
80566;BME280;69915;54.862;10.730;2024-03-17T02:43:49;102101.56;;;2.55;84.11
80566;BME280;69915;54.862;10.730;2024-03-17T02:46:16;102093.25;;;2.57;83.53
80566;BME280;69915;54.862;10.730;2024-03-17T02:48:44;102094.91;;;2.51;84.17
80566;BME280;69915;54.862;10.730;2024-03-17T02:51:18;102093.88;;;2.59;83.86
80566;BME280;69915;54.862;10.730;2024-03-17T02:53:45;102108.63;;;2.56;84.25
80566;BME280;69915;54.862;10.730;2024-03-17T02:56:12;102114.22;;;2.48;84.36
80566;BME280;69915;54.862;10.730;2024-03-17T02:58:39;102113.59;;;2.46;84.88
80566;BME280;69915;54.862;10.730;2024-03-17T03:01:08;102111.75;;;2.47;85.10
80566;BME280;69915;54.862;10.730;2024-03-17T03:03:35;102114.00;;;2.43;84.95
80566;BME280;69915;54.862;10.730;2024-03-17T03:06:01;102102.19;;;2.44;84.38
80566;BME280;69915;54.862;10.730;2024-03-17T03:08:32;102115.03;;;2.42;84.09
80566;BME280;69915;54.862;10.730;2024-03-17T03:10:59;102103.22;;;2.43;84.09
80566;BME280;69915;54.862;10.730;2024-03-17T03:13:25;102105.69;;;2.45;84.19
80566;BME280;69915;54.862;10.730;2024-03-17T03:15:51;102106.94;;;2.42;83.94
80566;BME280;69915;54.862;10.730;2024-03-17T03:18:16;102095.72;;;2.39;84.14
80566;BME280;69915;54.862;10.730;2024-03-17T03:20:42;102114.00;;;2.43;83.96
80566;BME280;69915;54.862;10.730;2024-03-17T03:23:09;102119.59;;;2.42;84.63
80566;BME280;69915;54.862;10.730;2024-03-17T03:25:35;102136.44;;;2.37;85.09
80566;BME280;69915;54.862;10.730;2024-03-17T03:28:00;102128.34;;;2.37;85.30
80566;BME280;69915;54.862;10.730;2024-03-17T03:30:27;102135.16;;;2.33;85.66
80566;BME280;69915;54.862;10.730;2024-03-17T03:32:54;102137.44;;;2.23;85.66
80566;BME280;69915;54.862;10.730;2024-03-17T03:35:20;102130.56;;;2.20;85.69
80566;BME280;69915;54.862;10.730;2024-03-17T03:37:46;102135.56;;;2.24;85.44
80566;BME280;69915;54.862;10.730;2024-03-17T03:40:12;102141.34;;;2.20;85.95
80566;BME280;69915;54.862;10.730;2024-03-17T03:42:45;102136.59;;;2.16;85.76
80566;BME280;69915;54.862;10.730;2024-03-17T03:45:11;102133.47;;;2.12;85.45
80566;BME280;69915;54.862;10.730;2024-03-17T03:47:43;102135.97;;;2.20;84.71
80566;BME280;69915;54.862;10.730;2024-03-17T03:50:15;102131.78;;;2.11;84.63
80566;BME280;69915;54.862;10.730;2024-03-17T03:52:40;102140.31;;;2.15;84.54
80566;BME280;69915;54.862;10.730;2024-03-17T03:58:20;102147.38;;;2.16;85.93
80566;BME280;69915;54.862;10.730;2024-03-17T04:00:46;102148.63;;;2.13;85.30
80566;BME280;69915;54.862;10.730;2024-03-17T04:03:11;102163.34;;;2.11;85.36
80566;BME280;69915;54.862;10.730;2024-03-17T04:05:37;102173.28;;;2.04;85.33
80566;BME280;69915;54.862;10.730;2024-03-17T04:08:04;102169.53;;;1.98;85.87
80566;BME280;69915;54.862;10.730;2024-03-17T04:10:30;102174.06;;;1.91;86.24
80566;BME280;69915;54.862;10.730;2024-03-17T04:12:55;102175.50;;;1.94;85.98
80566;BME280;69915;54.862;10.730;2024-03-17T04:15:22;102201.06;;;1.98;86.54
80566;BME280;69915;54.862;10.730;2024-03-17T04:17:48;102180.25;;;1.85;86.77
80566;BME280;69915;54.862;10.730;2024-03-17T04:20:14;102187.72;;;1.83;87.11
80566;BME280;69915;54.862;10.730;2024-03-17T04:22:43;102185.22;;;1.82;86.92
80566;BME280;69915;54.862;10.730;2024-03-17T04:25:09;102205.94;;;1.81;87.06
80566;BME280;69915;54.862;10.730;2024-03-17T04:27:34;102186.63;;;1.78;87.34
80566;BME280;69915;54.862;10.730;2024-03-17T04:30:00;102190.38;;;1.77;87.60
80566;BME280;69915;54.862;10.730;2024-03-17T04:32:26;102190.13;;;1.72;87.23
80566;BME280;69915;54.862;10.730;2024-03-17T04:34:52;102201.13;;;1.70;87.55
80566;BME280;69915;54.862;10.730;2024-03-17T04:37:18;102201.34;;;1.75;87.24
80566;BME280;69915;54.862;10.730;2024-03-17T04:39:45;102205.50;;;1.78;87.48
80566;BME280;69915;54.862;10.730;2024-03-17T04:42:12;102206.69;;;1.69;87.99
80566;BME280;69915;54.862;10.730;2024-03-17T04:44:39;102218.28;;;1.62;88.27
80566;BME280;69915;54.862;10.730;2024-03-17T04:47:05;102212.69;;;1.64;88.07
80566;BME280;69915;54.862;10.730;2024-03-17T04:49:42;102215.00;;;1.67;88.32
80566;BME280;69915;54.862;10.730;2024-03-17T04:52:10;102213.72;;;1.63;88.47
80566;BME280;69915;54.862;10.730;2024-03-17T04:54:36;102215.31;;;1.51;89.13
80566;BME280;69915;54.862;10.730;2024-03-17T04:57:02;102223.38;;;1.51;89.29
80566;BME280;69915;54.862;10.730;2024-03-17T04:59:28;102225.91;;;1.52;88.85
80566;BME280;69915;54.862;10.730;2024-03-17T05:01:54;102228.50;;;1.39;89.31
80566;BME280;69915;54.862;10.730;2024-03-17T05:04:19;102231.63;;;1.43;89.53
80566;BME280;69915;54.862;10.730;2024-03-17T05:06:45;102237.59;;;1.38;90.22
80566;BME280;69915;54.862;10.730;2024-03-17T05:09:14;102228.03;;;1.36;90.03
80566;BME280;69915;54.862;10.730;2024-03-17T05:11:41;102236.75;;;1.38;90.17
80566;BME280;69915;54.862;10.730;2024-03-17T05:14:07;102237.59;;;1.38;90.21
80566;BME280;69915;54.862;10.730;2024-03-17T05:16:33;102238.44;;;1.39;90.38
80566;BME280;69915;54.862;10.730;2024-03-17T05:18:58;102239.44;;;1.31;90.53
80566;BME280;69915;54.862;10.730;2024-03-17T05:21:24;102252.50;;;1.34;90.24
80566;BME280;69915;54.862;10.730;2024-03-17T05:23:52;102244.81;;;1.31;90.70
80566;BME280;69915;54.862;10.730;2024-03-17T05:26:18;102256.63;;;1.30;91.14
80566;BME280;69915;54.862;10.730;2024-03-17T05:28:43;102255.16;;;1.28;91.44
80566;BME280;69915;54.862;10.730;2024-03-17T05:31:10;102263.84;;;1.30;91.45
80566;BME280;69915;54.862;10.730;2024-03-17T05:33:35;102268.28;;;1.37;91.20
80566;BME280;69915;54.862;10.730;2024-03-17T05:36:02;102282.38;;;1.39;91.50
80566;BME280;69915;54.862;10.730;2024-03-17T05:38:29;102279.25;;;1.36;91.48
80566;BME280;69915;54.862;10.730;2024-03-17T05:40:59;102281.75;;;1.37;91.17
80566;BME280;69915;54.862;10.730;2024-03-17T05:43:26;102282.84;;;1.43;91.35
80566;BME280;69915;54.862;10.730;2024-03-17T05:46:01;102272.69;;;1.45;91.33
80566;BME280;69915;54.862;10.730;2024-03-17T05:48:28;102279.34;;;1.49;91.10
80566;BME280;69915;54.862;10.730;2024-03-17T05:50:54;102278.38;;;1.56;90.98
80566;BME280;69915;54.862;10.730;2024-03-17T05:53:21;102279.25;;;1.63;90.71
80566;BME280;69915;54.862;10.730;2024-03-17T05:55:48;102279.31;;;1.70;90.45
80566;BME280;69915;54.862;10.730;2024-03-17T05:58:14;102285.47;;;2.33;90.36
80566;BME280;69915;54.862;10.730;2024-03-17T06:00:40;102269.06;;;3.08;87.98
80566;BME280;69915;54.862;10.730;2024-03-17T06:03:06;102241.59;;;3.70;84.11
80566;BME280;69915;54.862;10.730;2024-03-17T06:05:36;102218.88;;;4.35;80.94
80566;BME280;69915;54.862;10.730;2024-03-17T06:08:02;102204.91;;;4.76;77.37
80566;BME280;69915;54.862;10.730;2024-03-17T06:10:29;102193.91;;;5.45;75.76
80566;BME280;69915;54.862;10.730;2024-03-17T06:12:56;102182.09;;;6.30;74.57
80566;BME280;69915;54.862;10.730;2024-03-17T06:15:22;102174.28;;;6.93;72.27
80566;BME280;69915;54.862;10.730;2024-03-17T06:17:49;102131.84;;;7.39;70.16
80566;BME280;69915;54.862;10.730;2024-03-17T06:20:17;102098.09;;;7.51;67.38
80566;BME280;69915;54.862;10.730;2024-03-17T06:22:43;102107.91;;;7.92;67.06
80566;BME280;69915;54.862;10.730;2024-03-17T06:25:09;102085.56;;;7.90;65.52
80566;BME280;69915;54.862;10.730;2024-03-17T06:27:35;102053.94;;;7.61;64.29
80566;BME280;69915;54.862;10.730;2024-03-17T06:30:00;102108.41;;;7.89;65.29
80566;BME280;69915;54.862;10.730;2024-03-17T06:32:32;102087.16;;;7.75;64.75
80566;BME280;69915;54.862;10.730;2024-03-17T06:34:59;102120.28;;;8.11;65.44
80566;BME280;69915;54.862;10.730;2024-03-17T06:37:26;102087.09;;;7.86;64.18
80566;BME280;69915;54.862;10.730;2024-03-17T06:39:52;102100.25;;;8.17;64.20
80566;BME280;69915;54.862;10.730;2024-03-17T06:42:17;102057.25;;;8.19;62.63
80566;BME280;69915;54.862;10.730;2024-03-17T06:44:43;102120.94;;;7.39;64.51
80566;BME280;69915;54.862;10.730;2024-03-17T06:47:08;102159.53;;;7.99;65.62
80566;BME280;69915;54.862;10.730;2024-03-17T06:49:34;102126.84;;;8.39;64.46
80566;BME280;69915;54.862;10.730;2024-03-17T06:51:59;102078.78;;;8.99;62.50
80566;BME280;69915;54.862;10.730;2024-03-17T06:54:25;102029.69;;;8.99;61.09
80566;BME280;69915;54.862;10.730;2024-03-17T06:56:50;102044.25;;;8.88;60.83
80566;BME280;69915;54.862;10.730;2024-03-17T06:59:17;102071.28;;;8.73;60.74
80566;BME280;69915;54.862;10.730;2024-03-17T07:01:43;102114.44;;;8.31;61.92
80566;BME280;69915;54.862;10.730;2024-03-17T07:04:10;102079.03;;;8.48;60.74
80566;BME280;69915;54.862;10.730;2024-03-17T07:06:36;102117.59;;;8.40;62.31
80566;BME280;69915;54.862;10.730;2024-03-17T07:09:02;102156.47;;;8.63;63.06
80566;BME280;69915;54.862;10.730;2024-03-17T07:11:28;102122.09;;;8.62;61.51
80566;BME280;69915;54.862;10.730;2024-03-17T07:13:53;102133.81;;;8.63;62.25
80566;BME280;69915;54.862;10.730;2024-03-17T07:16:19;102100.41;;;8.39;61.66
80566;BME280;69915;54.862;10.730;2024-03-17T07:18:47;102155.72;;;8.11;63.21
80566;BME280;69915;54.862;10.730;2024-03-17T07:21:12;102169.94;;;7.39;63.78
80566;BME280;69915;54.862;10.730;2024-03-17T07:23:38;102208.41;;;6.89;65.00
80566;BME280;69915;54.862;10.730;2024-03-17T07:26:04;102251.03;;;6.47;66.47
80566;BME280;69915;54.862;10.730;2024-03-17T07:28:31;102260.66;;;5.95;67.39
80566;BME280;69915;54.862;10.730;2024-03-17T07:30:59;102281.97;;;5.67;69.09
80566;BME280;69915;54.862;10.730;2024-03-17T07:33:27;102283.91;;;5.60;69.35
80566;BME280;69915;54.862;10.730;2024-03-17T07:35:54;102268.47;;;5.36;68.69
80566;BME280;69915;54.862;10.730;2024-03-17T07:38:27;102289.69;;;5.14;69.54
80566;BME280;69915;54.862;10.730;2024-03-17T07:41:00;102284.81;;;4.98;69.94
80566;BME280;69915;54.862;10.730;2024-03-17T07:43:27;102282.59;;;5.20;70.37
80566;BME280;69915;54.862;10.730;2024-03-17T07:48:23;102252.84;;;5.81;69.40
80566;BME280;69915;54.862;10.730;2024-03-17T07:50:56;102251.88;;;6.12;68.69
80566;BME280;69915;54.862;10.730;2024-03-17T07:53:22;102234.91;;;6.16;68.40
80566;BME280;69915;54.862;10.730;2024-03-17T07:56:10;102217.78;;;6.16;66.72
80566;BME280;69915;54.862;10.730;2024-03-17T07:58:37;102206.03;;;5.85;66.44
80566;BME280;69915;54.862;10.730;2024-03-17T08:01:13;102199.47;;;6.29;66.20
80566;BME280;69915;54.862;10.730;2024-03-17T08:03:41;102172.63;;;6.51;65.09
80566;BME280;69915;54.862;10.730;2024-03-17T08:06:09;102223.63;;;6.01;66.54
80566;BME280;69915;54.862;10.730;2024-03-17T08:08:36;102229.84;;;5.83;67.04
80566;BME280;69915;54.862;10.730;2024-03-17T08:11:02;102270.25;;;5.48;67.96
80566;BME280;69915;54.862;10.730;2024-03-17T08:13:31;102310.47;;;5.27;69.02
80566;BME280;69915;54.862;10.730;2024-03-17T08:16:04;102314.63;;;5.29;70.16
80566;BME280;69915;54.862;10.730;2024-03-17T08:18:36;102302.88;;;5.35;70.38
80566;BME280;69915;54.862;10.730;2024-03-17T08:21:03;102285.19;;;5.33;69.16
80566;BME280;69915;54.862;10.730;2024-03-17T08:23:32;102297.84;;;5.39;69.56
80566;BME280;69915;54.862;10.730;2024-03-17T08:25:59;102308.59;;;5.52;70.48
80566;BME280;69915;54.862;10.730;2024-03-17T08:28:27;102290.28;;;5.47;69.54
80566;BME280;69915;54.862;10.730;2024-03-17T08:31:03;102292.00;;;5.67;69.97
80566;BME280;69915;54.862;10.730;2024-03-17T08:33:29;102236.22;;;5.71;67.28
80566;BME280;69915;54.862;10.730;2024-03-17T08:36:00;102212.75;;;6.01;66.14
80566;BME280;69915;54.862;10.730;2024-03-17T08:38:28;102215.53;;;6.13;66.42
80566;BME280;69915;54.862;10.730;2024-03-17T08:40:55;102226.81;;;5.73;66.77
80566;BME280;69915;54.862;10.730;2024-03-17T08:43:21;102190.28;;;5.94;65.40
80566;BME280;69915;54.862;10.730;2024-03-17T08:46:00;102209.91;;;5.53;65.23
80566;BME280;69915;54.862;10.730;2024-03-17T08:48:28;102215.03;;;5.61;65.59
80566;BME280;69915;54.862;10.730;2024-03-17T08:50:54;102223.63;;;5.58;64.87
80566;BME280;69915;54.862;10.730;2024-03-17T08:53:21;102227.38;;;5.57;65.46
80566;BME280;69915;54.862;10.730;2024-03-17T08:55:47;102207.50;;;5.81;64.49
80566;BME280;69915;54.862;10.730;2024-03-17T08:58:12;102237.03;;;5.96;66.00
80566;BME280;69915;54.862;10.730;2024-03-17T09:00:39;102184.63;;;6.14;64.40
80566;BME280;69915;54.862;10.730;2024-03-17T09:03:06;102137.13;;;6.05;62.30
80566;BME280;69915;54.862;10.730;2024-03-17T09:05:36;102162.72;;;6.09;62.87
80566;BME280;69915;54.862;10.730;2024-03-17T09:08:02;102199.19;;;6.01;63.35
80566;BME280;69915;54.862;10.730;2024-03-17T09:10:28;102196.84;;;5.86;63.53
80566;BME280;69915;54.862;10.730;2024-03-17T09:12:54;102221.69;;;5.83;64.17
80566;BME280;69915;54.862;10.730;2024-03-17T09:15:19;102250.56;;;5.78;64.64
80566;BME280;69915;54.862;10.730;2024-03-17T09:17:46;102233.22;;;5.79;64.59
80566;BME280;69915;54.862;10.730;2024-03-17T09:20:13;102239.13;;;6.12;64.18
80566;BME280;69915;54.862;10.730;2024-03-17T09:22:41;102216.72;;;6.35;63.67
80566;BME280;69915;54.862;10.730;2024-03-17T09:25:10;102262.91;;;6.94;64.91
80566;BME280;69915;54.862;10.730;2024-03-17T09:27:36;102175.41;;;6.74;62.54
80566;BME280;69915;54.862;10.730;2024-03-17T09:30:06;102191.56;;;7.22;62.57
80566;BME280;69915;54.862;10.730;2024-03-17T09:32:34;102158.22;;;6.62;61.57
80566;BME280;69915;54.862;10.730;2024-03-17T09:35:00;102212.16;;;5.99;63.35
80566;BME280;69915;54.862;10.730;2024-03-17T09:37:26;102239.13;;;6.12;63.82
80566;BME280;69915;54.862;10.730;2024-03-17T09:39:52;102237.25;;;5.94;64.16
80566;BME280;69915;54.862;10.730;2024-03-17T09:42:18;102244.03;;;6.22;64.12
80566;BME280;69915;54.862;10.730;2024-03-17T09:44:48;102240.50;;;6.03;63.96
80566;BME280;69915;54.862;10.730;2024-03-17T09:47:16;102262.91;;;5.98;64.24
80566;BME280;69915;54.862;10.730;2024-03-17T09:49:43;102224.38;;;5.90;63.45
80566;BME280;69915;54.862;10.730;2024-03-17T09:52:24;102256.22;;;5.76;64.67
80566;BME280;69915;54.862;10.730;2024-03-17T09:55:09;102284.75;;;5.85;65.24
80566;BME280;69915;54.862;10.730;2024-03-17T09:57:40;102288.72;;;6.26;65.83
80566;BME280;69915;54.862;10.730;2024-03-17T10:00:14;102229.94;;;6.13;63.80
80566;BME280;69915;54.862;10.730;2024-03-17T10:02:47;102211.06;;;6.18;62.89
80566;BME280;69915;54.862;10.730;2024-03-17T10:05:24;102205.00;;;6.05;62.97
80566;BME280;69915;54.862;10.730;2024-03-17T10:07:51;102230.09;;;6.00;64.29
80566;BME280;69915;54.862;10.730;2024-03-17T10:10:17;102249.94;;;6.00;64.48
80566;BME280;69915;54.862;10.730;2024-03-17T10:12:44;102256.19;;;6.01;64.52
80566;BME280;69915;54.862;10.730;2024-03-17T10:15:14;102241.47;;;5.90;64.82
80566;BME280;69915;54.862;10.730;2024-03-17T10:17:39;102263.81;;;6.11;65.49
80566;BME280;69915;54.862;10.730;2024-03-17T10:20:13;102236.91;;;5.84;64.07
80566;BME280;69915;54.862;10.730;2024-03-17T10:23:01;102271.81;;;6.24;65.40
80566;BME280;69915;54.862;10.730;2024-03-17T10:25:28;102240.66;;;6.26;64.43
80566;BME280;69915;54.862;10.730;2024-03-17T10:27:54;102254.16;;;6.33;65.13
80566;BME280;69915;54.862;10.730;2024-03-17T10:30:22;102272.78;;;6.29;65.61
80566;BME280;69915;54.862;10.730;2024-03-17T10:32:57;102222.25;;;6.58;63.53
80566;BME280;69915;54.862;10.730;2024-03-17T10:35:31;102230.81;;;6.43;63.82
80566;BME280;69915;54.862;10.730;2024-03-17T10:38:02;102267.03;;;6.37;64.59
80566;BME280;69915;54.862;10.730;2024-03-17T10:40:29;102288.38;;;6.52;65.38
80566;BME280;69915;54.862;10.730;2024-03-17T10:42:56;102305.22;;;6.24;66.03
80566;BME280;69915;54.862;10.730;2024-03-17T10:45:22;102308.47;;;6.33;66.52
80566;BME280;69915;54.862;10.730;2024-03-17T10:47:50;102322.06;;;6.33;66.49
80566;BME280;69915;54.862;10.730;2024-03-17T10:50:21;102314.50;;;6.53;65.86
80566;BME280;69915;54.862;10.730;2024-03-17T10:52:50;102270.44;;;6.81;64.36
80566;BME280;69915;54.862;10.730;2024-03-17T10:55:26;102272.06;;;6.52;64.55
80566;BME280;69915;54.862;10.730;2024-03-17T10:57:53;102299.03;;;6.17;65.40
80566;BME280;69915;54.862;10.730;2024-03-17T11:00:22;102305.66;;;6.39;65.56
80566;BME280;69915;54.862;10.730;2024-03-17T11:02:54;102273.38;;;6.49;64.86
80566;BME280;69915;54.862;10.730;2024-03-17T11:05:25;102279.00;;;6.66;64.62
80566;BME280;69915;54.862;10.730;2024-03-17T11:07:52;102282.19;;;6.93;64.78
80566;BME280;69915;54.862;10.730;2024-03-17T11:10:26;102213.94;;;6.83;63.14
80566;BME280;69915;54.862;10.730;2024-03-17T11:12:57;102239.66;;;6.98;63.34
80566;BME280;69915;54.862;10.730;2024-03-17T11:23:28;102277.69;;;6.87;63.63
80566;BME280;69915;54.862;10.730;2024-03-17T11:25:55;102249.03;;;7.14;63.08
80566;BME280;69915;54.862;10.730;2024-03-17T11:31:34;102288.53;;;6.57;63.67
80566;BME280;69915;54.862;10.730;2024-03-17T11:34:05;102286.56;;;6.46;63.51
80566;BME280;69915;54.862;10.730;2024-03-17T11:36:38;102340.84;;;6.52;65.52
80566;BME280;69915;54.862;10.730;2024-03-17T11:39:10;102338.97;;;6.53;65.46
80566;BME280;69915;54.862;10.730;2024-03-17T11:41:53;102361.34;;;6.48;65.98
80566;BME280;69915;54.862;10.730;2024-03-17T11:51:51;102274.16;;;6.68;63.79
80566;BME280;69915;54.862;10.730;2024-03-17T11:54:22;102293.75;;;6.88;64.19
80566;BME280;69915;54.862;10.730;2024-03-17T11:56:50;102267.63;;;6.87;63.37
80566;BME280;69915;54.862;10.730;2024-03-17T11:59:20;102299.88;;;7.13;64.22
80566;BME280;69915;54.862;10.730;2024-03-17T12:01:49;102263.47;;;7.15;62.46
80566;BME280;69915;54.862;10.730;2024-03-17T12:04:18;102254.06;;;6.99;62.65
80566;BME280;69915;54.862;10.730;2024-03-17T12:06:50;102259.47;;;6.87;63.37
80566;BME280;69915;54.862;10.730;2024-03-17T12:09:23;102291.31;;;6.98;63.61
80566;BME280;69915;54.862;10.730;2024-03-17T12:12:00;102292.16;;;7.10;63.94
80566;BME280;69915;54.862;10.730;2024-03-17T12:14:27;102274.88;;;6.93;63.12
80566;BME280;69915;54.862;10.730;2024-03-17T12:17:00;102307.38;;;6.70;64.79
80566;BME280;69915;54.862;10.730;2024-03-17T12:19:27;102306.44;;;6.76;64.42
80566;BME280;69915;54.862;10.730;2024-03-17T12:21:56;102265.50;;;6.60;63.70
80566;BME280;69915;54.862;10.730;2024-03-17T12:24:27;102329.50;;;6.74;65.47
80566;BME280;69915;54.862;10.730;2024-03-17T12:26:55;102310.28;;;6.57;65.23
80566;BME280;69915;54.862;10.730;2024-03-17T12:31:56;102275.09;;;6.92;63.23
80566;BME280;69915;54.862;10.730;2024-03-17T12:34:25;102253.03;;;7.11;62.55
80566;BME280;69915;54.862;10.730;2024-03-17T12:36:55;102284.25;;;7.09;64.06
80566;BME280;69915;54.862;10.730;2024-03-17T12:39:29;102305.91;;;7.16;64.75
80566;BME280;69915;54.862;10.730;2024-03-17T12:44:35;102333.19;;;6.61;65.87
80566;BME280;69915;54.862;10.730;2024-03-17T12:47:04;102316.84;;;6.49;65.85
80566;BME280;69915;54.862;10.730;2024-03-17T12:49:32;102326.66;;;6.69;66.18
80566;BME280;69915;54.862;10.730;2024-03-17T12:52:02;102335.09;;;6.61;66.52
80566;BME280;69915;54.862;10.730;2024-03-17T12:54:28;102296.59;;;6.64;66.06
80566;BME280;69915;54.862;10.730;2024-03-17T12:57:08;102299.41;;;6.57;65.36
80566;BME280;69915;54.862;10.730;2024-03-17T12:59:52;102295.53;;;6.65;65.33
80566;BME280;69915;54.862;10.730;2024-03-17T13:02:20;102320.84;;;6.47;66.22
80566;BME280;69915;54.862;10.730;2024-03-17T13:04:46;102324.31;;;6.36;66.49
80566;BME280;69915;54.862;10.730;2024-03-17T13:07:11;102316.69;;;6.63;66.71
80566;BME280;69915;54.862;10.730;2024-03-17T13:09:37;102322.78;;;6.40;67.12
80566;BME280;69915;54.862;10.730;2024-03-17T13:12:13;102334.88;;;6.26;67.58
80566;BME280;69915;54.862;10.730;2024-03-17T13:14:40;102349.97;;;6.40;67.67
80566;BME280;69915;54.862;10.730;2024-03-17T13:17:07;102297.84;;;6.31;66.41
80566;BME280;69915;54.862;10.730;2024-03-17T13:19:41;102334.56;;;6.16;67.62
80566;BME280;69915;54.862;10.730;2024-03-17T13:22:09;102320.09;;;6.40;66.86
80566;BME280;69915;54.862;10.730;2024-03-17T13:24:35;102292.22;;;6.63;66.37